sensor_id;sensor_type;location;lat;lon;timestamp;P1;durP1;ratioP1;P2;durP2;ratioP2
17145;SDS011;8688;54.444;18.444;2022-10-31T00:00:55;62.73;;;32.10;;
17145;SDS011;8688;54.444;18.444;2022-10-31T00:03:23;62.27;;;32.60;;
17145;SDS011;8688;54.444;18.444;2022-10-31T00:05:51;59.10;;;31.37;;
17145;SDS011;8688;54.444;18.444;2022-10-31T00:08:20;59.37;;;29.63;;
17145;SDS011;8688;54.444;18.444;2022-10-31T00:10:48;67.43;;;31.13;;
17145;SDS011;8688;54.444;18.444;2022-10-31T00:13:15;59.90;;;29.87;;
17145;SDS011;8688;54.444;18.444;2022-10-31T00:15:43;56.80;;;29.77;;
17145;SDS011;8688;54.444;18.444;2022-10-31T00:18:10;62.77;;;31.23;;
17145;SDS011;8688;54.444;18.444;2022-10-31T00:20:38;61.43;;;30.10;;
17145;SDS011;8688;54.444;18.444;2022-10-31T00:23:06;59.30;;;31.30;;
17145;SDS011;8688;54.444;18.444;2022-10-31T00:25:35;62.47;;;29.77;;
17145;SDS011;8688;54.444;18.444;2022-10-31T00:28:05;57.93;;;29.37;;
17145;SDS011;8688;54.444;18.444;2022-10-31T00:30:33;53.83;;;29.57;;
17145;SDS011;8688;54.444;18.444;2022-10-31T00:33:02;53.77;;;29.60;;
17145;SDS011;8688;54.444;18.444;2022-10-31T00:35:30;54.97;;;29.67;;
17145;SDS011;8688;54.444;18.444;2022-10-31T00:37:58;51.10;;;27.97;;
17145;SDS011;8688;54.444;18.444;2022-10-31T00:40:25;52.17;;;26.93;;
17145;SDS011;8688;54.444;18.444;2022-10-31T00:42:54;62.23;;;27.50;;
17145;SDS011;8688;54.444;18.444;2022-10-31T00:45:22;65.67;;;27.60;;
17145;SDS011;8688;54.444;18.444;2022-10-31T00:47:49;58.17;;;26.67;;
17145;SDS011;8688;54.444;18.444;2022-10-31T00:50:17;57.77;;;27.40;;
17145;SDS011;8688;54.444;18.444;2022-10-31T00:52:44;54.77;;;27.17;;
17145;SDS011;8688;54.444;18.444;2022-10-31T00:55:12;65.70;;;26.37;;
17145;SDS011;8688;54.444;18.444;2022-10-31T00:57:39;66.97;;;24.43;;
17145;SDS011;8688;54.444;18.444;2022-10-31T01:00:09;61.37;;;24.17;;
17145;SDS011;8688;54.444;18.444;2022-10-31T01:02:37;57.33;;;23.40;;
17145;SDS011;8688;54.444;18.444;2022-10-31T01:05:05;60.77;;;23.67;;
17145;SDS011;8688;54.444;18.444;2022-10-31T01:07:35;65.03;;;23.23;;
17145;SDS011;8688;54.444;18.444;2022-10-31T01:10:02;86.17;;;22.90;;
17145;SDS011;8688;54.444;18.444;2022-10-31T01:12:35;64.87;;;22.53;;
17145;SDS011;8688;54.444;18.444;2022-10-31T01:15:03;62.87;;;24.30;;
17145;SDS011;8688;54.444;18.444;2022-10-31T01:17:33;61.37;;;22.70;;
17145;SDS011;8688;54.444;18.444;2022-10-31T01:20:01;62.30;;;23.67;;
17145;SDS011;8688;54.444;18.444;2022-10-31T01:22:29;59.27;;;23.30;;
17145;SDS011;8688;54.444;18.444;2022-10-31T01:24:56;55.07;;;22.63;;
17145;SDS011;8688;54.444;18.444;2022-10-31T01:27:24;80.63;;;21.43;;
17145;SDS011;8688;54.444;18.444;2022-10-31T01:29:51;59.97;;;21.90;;
17145;SDS011;8688;54.444;18.444;2022-10-31T01:32:18;68.50;;;21.57;;
17145;SDS011;8688;54.444;18.444;2022-10-31T01:34:47;69.17;;;19.97;;
17145;SDS011;8688;54.444;18.444;2022-10-31T01:37:15;74.60;;;19.93;;
17145;SDS011;8688;54.444;18.444;2022-10-31T01:39:42;69.97;;;19.83;;
17145;SDS011;8688;54.444;18.444;2022-10-31T01:42:11;98.30;;;18.33;;
17145;SDS011;8688;54.444;18.444;2022-10-31T01:44:48;80.20;;;18.57;;
17145;SDS011;8688;54.444;18.444;2022-10-31T01:47:19;54.63;;;16.83;;
17145;SDS011;8688;54.444;18.444;2022-10-31T01:49:59;52.17;;;18.93;;
17145;SDS011;8688;54.444;18.444;2022-10-31T01:52:30;58.77;;;18.60;;
17145;SDS011;8688;54.444;18.444;2022-10-31T01:54:59;57.40;;;18.73;;
17145;SDS011;8688;54.444;18.444;2022-10-31T01:57:30;59.43;;;17.37;;
17145;SDS011;8688;54.444;18.444;2022-10-31T01:59:59;62.33;;;15.53;;
17145;SDS011;8688;54.444;18.444;2022-10-31T02:02:29;43.83;;;15.17;;
17145;SDS011;8688;54.444;18.444;2022-10-31T02:05:00;42.90;;;15.25;;
17145;SDS011;8688;54.444;18.444;2022-10-31T02:07:32;36.40;;;14.57;;
17145;SDS011;8688;54.444;18.444;2022-10-31T02:10:05;36.20;;;13.65;;
17145;SDS011;8688;54.444;18.444;2022-10-31T02:12:33;42.67;;;14.45;;
17145;SDS011;8688;54.444;18.444;2022-10-31T02:15:02;41.65;;;13.63;;
17145;SDS011;8688;54.444;18.444;2022-10-31T02:17:31;38.83;;;14.00;;
17145;SDS011;8688;54.444;18.444;2022-10-31T02:20:03;48.33;;;13.02;;
17145;SDS011;8688;54.444;18.444;2022-10-31T02:22:40;47.43;;;12.53;;
17145;SDS011;8688;54.444;18.444;2022-10-31T02:25:35;40.78;;;14.00;;
17145;SDS011;8688;54.444;18.444;2022-10-31T02:28:24;32.72;;;12.95;;
17145;SDS011;8688;54.444;18.444;2022-10-31T02:31:04;30.08;;;12.70;;
17145;SDS011;8688;54.444;18.444;2022-10-31T02:33:44;41.40;;;13.82;;
17145;SDS011;8688;54.444;18.444;2022-10-31T02:36:18;39.47;;;14.00;;
17145;SDS011;8688;54.444;18.444;2022-10-31T02:38:53;33.35;;;14.18;;
17145;SDS011;8688;54.444;18.444;2022-10-31T02:41:31;33.10;;;13.60;;
17145;SDS011;8688;54.444;18.444;2022-10-31T02:44:05;56.30;;;15.35;;
17145;SDS011;8688;54.444;18.444;2022-10-31T02:46:39;45.80;;;15.32;;
17145;SDS011;8688;54.444;18.444;2022-10-31T02:49:12;35.65;;;14.40;;
17145;SDS011;8688;54.444;18.444;2022-10-31T02:51:48;39.00;;;15.35;;
17145;SDS011;8688;54.444;18.444;2022-10-31T02:54:17;47.33;;;15.23;;
17145;SDS011;8688;54.444;18.444;2022-10-31T02:56:46;57.63;;;15.57;;
17145;SDS011;8688;54.444;18.444;2022-10-31T02:59:15;40.55;;;14.98;;
17145;SDS011;8688;54.444;18.444;2022-10-31T03:01:47;39.90;;;15.60;;
17145;SDS011;8688;54.444;18.444;2022-10-31T03:04:40;44.05;;;15.48;;
17145;SDS011;8688;54.444;18.444;2022-10-31T03:07:28;40.13;;;14.80;;
17145;SDS011;8688;54.444;18.444;2022-10-31T03:10:08;37.00;;;16.08;;
17145;SDS011;8688;54.444;18.444;2022-10-31T03:12:44;35.90;;;15.57;;
17145;SDS011;8688;54.444;18.444;2022-10-31T03:15:17;33.85;;;14.85;;
17145;SDS011;8688;54.444;18.444;2022-10-31T03:17:55;44.90;;;16.38;;
17145;SDS011;8688;54.444;18.444;2022-10-31T03:20:28;34.50;;;13.93;;
17145;SDS011;8688;54.444;18.444;2022-10-31T03:23:02;35.22;;;14.63;;
17145;SDS011;8688;54.444;18.444;2022-10-31T03:25:32;55.03;;;14.20;;
17145;SDS011;8688;54.444;18.444;2022-10-31T03:28:02;34.78;;;14.32;;
17145;SDS011;8688;54.444;18.444;2022-10-31T03:30:32;39.78;;;13.88;;
17145;SDS011;8688;54.444;18.444;2022-10-31T03:33:04;34.40;;;13.82;;
17145;SDS011;8688;54.444;18.444;2022-10-31T03:35:35;55.13;;;14.40;;
17145;SDS011;8688;54.444;18.444;2022-10-31T03:38:05;42.83;;;14.40;;
17145;SDS011;8688;54.444;18.444;2022-10-31T03:40:34;47.10;;;15.75;;
17145;SDS011;8688;54.444;18.444;2022-10-31T03:43:04;63.85;;;14.85;;
17145;SDS011;8688;54.444;18.444;2022-10-31T03:45:36;69.15;;;15.85;;
17145;SDS011;8688;54.444;18.444;2022-10-31T03:48:09;51.53;;;15.35;;
17145;SDS011;8688;54.444;18.444;2022-10-31T03:50:38;55.97;;;15.32;;
17145;SDS011;8688;54.444;18.444;2022-10-31T03:53:13;49.97;;;16.50;;
17145;SDS011;8688;54.444;18.444;2022-10-31T03:55:43;41.05;;;15.50;;
17145;SDS011;8688;54.444;18.444;2022-10-31T03:58:18;40.08;;;16.30;;
17145;SDS011;8688;54.444;18.444;2022-10-31T04:00:48;43.35;;;15.45;;
17145;SDS011;8688;54.444;18.444;2022-10-31T04:03:21;41.28;;;15.82;;
17145;SDS011;8688;54.444;18.444;2022-10-31T04:05:51;40.55;;;15.88;;
17145;SDS011;8688;54.444;18.444;2022-10-31T04:08:23;45.63;;;16.80;;
17145;SDS011;8688;54.444;18.444;2022-10-31T04:10:54;44.88;;;17.27;;
17145;SDS011;8688;54.444;18.444;2022-10-31T04:13:25;51.88;;;16.33;;
17145;SDS011;8688;54.444;18.444;2022-10-31T04:15:54;44.63;;;17.23;;
17145;SDS011;8688;54.444;18.444;2022-10-31T04:18:24;47.30;;;16.73;;
17145;SDS011;8688;54.444;18.444;2022-10-31T04:20:59;38.60;;;15.85;;
17145;SDS011;8688;54.444;18.444;2022-10-31T04:23:27;41.85;;;15.60;;
17145;SDS011;8688;54.444;18.444;2022-10-31T04:25:55;39.42;;;17.52;;
17145;SDS011;8688;54.444;18.444;2022-10-31T04:28:23;39.60;;;15.90;;
17145;SDS011;8688;54.444;18.444;2022-10-31T04:30:50;42.17;;;16.38;;
17145;SDS011;8688;54.444;18.444;2022-10-31T04:33:18;52.63;;;15.77;;
17145;SDS011;8688;54.444;18.444;2022-10-31T04:35:47;42.22;;;15.38;;
17145;SDS011;8688;54.444;18.444;2022-10-31T04:38:14;40.70;;;16.17;;
17145;SDS011;8688;54.444;18.444;2022-10-31T04:40:42;39.53;;;15.30;;
17145;SDS011;8688;54.444;18.444;2022-10-31T04:43:11;35.80;;;15.23;;
17145;SDS011;8688;54.444;18.444;2022-10-31T04:45:39;42.75;;;16.02;;
17145;SDS011;8688;54.444;18.444;2022-10-31T04:48:06;40.00;;;15.65;;
17145;SDS011;8688;54.444;18.444;2022-10-31T04:50:34;36.00;;;14.95;;
17145;SDS011;8688;54.444;18.444;2022-10-31T04:53:02;38.05;;;15.93;;
17145;SDS011;8688;54.444;18.444;2022-10-31T04:55:30;39.92;;;15.32;;
17145;SDS011;8688;54.444;18.444;2022-10-31T04:57:57;36.85;;;14.30;;
17145;SDS011;8688;54.444;18.444;2022-10-31T05:00:25;40.22;;;15.52;;
17145;SDS011;8688;54.444;18.444;2022-10-31T05:02:53;37.45;;;13.93;;
17145;SDS011;8688;54.444;18.444;2022-10-31T05:05:22;42.50;;;14.30;;
17145;SDS011;8688;54.444;18.444;2022-10-31T05:07:51;30.42;;;13.77;;
17145;SDS011;8688;54.444;18.444;2022-10-31T05:10:21;31.25;;;13.73;;
17145;SDS011;8688;54.444;18.444;2022-10-31T05:12:50;36.38;;;13.05;;
17145;SDS011;8688;54.444;18.444;2022-10-31T05:15:19;30.67;;;13.63;;
17145;SDS011;8688;54.444;18.444;2022-10-31T05:17:49;36.88;;;14.70;;
17145;SDS011;8688;54.444;18.444;2022-10-31T05:20:18;31.92;;;13.15;;
17145;SDS011;8688;54.444;18.444;2022-10-31T05:22:47;29.70;;;13.45;;
17145;SDS011;8688;54.444;18.444;2022-10-31T05:25:17;28.52;;;13.25;;
17145;SDS011;8688;54.444;18.444;2022-10-31T05:27:48;33.75;;;14.23;;
17145;SDS011;8688;54.444;18.444;2022-10-31T05:30:17;30.25;;;13.82;;
17145;SDS011;8688;54.444;18.444;2022-10-31T05:32:47;35.83;;;13.60;;
17145;SDS011;8688;54.444;18.444;2022-10-31T05:35:16;35.97;;;14.38;;
17145;SDS011;8688;54.444;18.444;2022-10-31T05:37:45;31.98;;;15.50;;
17145;SDS011;8688;54.444;18.444;2022-10-31T05:40:13;27.75;;;14.80;;
17145;SDS011;8688;54.444;18.444;2022-10-31T05:42:42;33.70;;;15.95;;
17145;SDS011;8688;54.444;18.444;2022-10-31T05:45:12;32.08;;;14.65;;
17145;SDS011;8688;54.444;18.444;2022-10-31T05:47:40;33.88;;;15.23;;
17145;SDS011;8688;54.444;18.444;2022-10-31T05:50:08;40.30;;;16.30;;
17145;SDS011;8688;54.444;18.444;2022-10-31T05:52:36;35.05;;;17.02;;
17145;SDS011;8688;54.444;18.444;2022-10-31T05:55:04;47.60;;;18.15;;
17145;SDS011;8688;54.444;18.444;2022-10-31T05:57:32;40.45;;;18.02;;
17145;SDS011;8688;54.444;18.444;2022-10-31T06:00:00;40.25;;;18.90;;
17145;SDS011;8688;54.444;18.444;2022-10-31T06:02:29;42.15;;;18.10;;
17145;SDS011;8688;54.444;18.444;2022-10-31T06:04:59;40.72;;;17.25;;
17145;SDS011;8688;54.444;18.444;2022-10-31T06:07:27;34.80;;;17.27;;
17145;SDS011;8688;54.444;18.444;2022-10-31T06:09:58;36.63;;;16.40;;
17145;SDS011;8688;54.444;18.444;2022-10-31T06:12:26;42.75;;;17.17;;
17145;SDS011;8688;54.444;18.444;2022-10-31T06:14:54;41.10;;;16.75;;
17145;SDS011;8688;54.444;18.444;2022-10-31T06:17:21;41.33;;;17.67;;
17145;SDS011;8688;54.444;18.444;2022-10-31T06:19:50;45.53;;;16.00;;
17145;SDS011;8688;54.444;18.444;2022-10-31T06:22:18;38.63;;;16.02;;
17145;SDS011;8688;54.444;18.444;2022-10-31T06:24:46;43.40;;;15.20;;
17145;SDS011;8688;54.444;18.444;2022-10-31T06:27:13;49.35;;;17.50;;
17145;SDS011;8688;54.444;18.444;2022-10-31T06:29:41;40.03;;;16.40;;
17145;SDS011;8688;54.444;18.444;2022-10-31T06:32:09;37.80;;;16.75;;
17145;SDS011;8688;54.444;18.444;2022-10-31T06:34:37;36.28;;;16.58;;
17145;SDS011;8688;54.444;18.444;2022-10-31T06:37:06;35.70;;;16.70;;
17145;SDS011;8688;54.444;18.444;2022-10-31T06:39:34;33.45;;;16.50;;
17145;SDS011;8688;54.444;18.444;2022-10-31T06:42:02;38.65;;;16.42;;
17145;SDS011;8688;54.444;18.444;2022-10-31T06:44:30;34.75;;;16.92;;
17145;SDS011;8688;54.444;18.444;2022-10-31T06:46:58;33.28;;;15.93;;
17145;SDS011;8688;54.444;18.444;2022-10-31T06:49:26;32.42;;;15.90;;
17145;SDS011;8688;54.444;18.444;2022-10-31T06:51:53;28.40;;;15.25;;
17145;SDS011;8688;54.444;18.444;2022-10-31T06:54:22;31.88;;;15.25;;
17145;SDS011;8688;54.444;18.444;2022-10-31T06:56:50;29.73;;;15.35;;
17145;SDS011;8688;54.444;18.444;2022-10-31T06:59:18;35.60;;;16.70;;
17145;SDS011;8688;54.444;18.444;2022-10-31T07:01:45;32.95;;;15.70;;
17145;SDS011;8688;54.444;18.444;2022-10-31T07:04:13;35.20;;;15.82;;
17145;SDS011;8688;54.444;18.444;2022-10-31T07:06:40;38.17;;;16.98;;
17145;SDS011;8688;54.444;18.444;2022-10-31T07:09:07;33.20;;;16.88;;
17145;SDS011;8688;54.444;18.444;2022-10-31T07:11:36;39.97;;;16.75;;
17145;SDS011;8688;54.444;18.444;2022-10-31T07:14:05;34.60;;;15.43;;
17145;SDS011;8688;54.444;18.444;2022-10-31T07:16:32;33.45;;;16.08;;
17145;SDS011;8688;54.444;18.444;2022-10-31T07:18:59;40.30;;;16.80;;
17145;SDS011;8688;54.444;18.444;2022-10-31T07:21:27;37.83;;;17.35;;
17145;SDS011;8688;54.444;18.444;2022-10-31T07:23:54;36.83;;;16.70;;
17145;SDS011;8688;54.444;18.444;2022-10-31T07:26:22;34.55;;;16.70;;
17145;SDS011;8688;54.444;18.444;2022-10-31T07:28:51;42.42;;;18.45;;
17145;SDS011;8688;54.444;18.444;2022-10-31T07:31:18;35.67;;;18.02;;
17145;SDS011;8688;54.444;18.444;2022-10-31T07:33:46;39.08;;;16.58;;
17145;SDS011;8688;54.444;18.444;2022-10-31T07:36:14;35.08;;;17.10;;
17145;SDS011;8688;54.444;18.444;2022-10-31T07:38:41;34.53;;;16.85;;
17145;SDS011;8688;54.444;18.444;2022-10-31T07:41:09;37.60;;;16.90;;
17145;SDS011;8688;54.444;18.444;2022-10-31T07:43:36;38.72;;;15.93;;
17145;SDS011;8688;54.444;18.444;2022-10-31T07:46:05;33.72;;;16.02;;
17145;SDS011;8688;54.444;18.444;2022-10-31T07:48:32;34.35;;;16.75;;
17145;SDS011;8688;54.444;18.444;2022-10-31T07:51:00;37.80;;;16.92;;
17145;SDS011;8688;54.444;18.444;2022-10-31T07:53:27;34.10;;;17.05;;
17145;SDS011;8688;54.444;18.444;2022-10-31T07:55:55;36.08;;;17.73;;
17145;SDS011;8688;54.444;18.444;2022-10-31T07:58:22;35.97;;;16.80;;
17145;SDS011;8688;54.444;18.444;2022-10-31T08:00:50;30.80;;;16.17;;
17145;SDS011;8688;54.444;18.444;2022-10-31T08:03:19;34.42;;;16.60;;
17145;SDS011;8688;54.444;18.444;2022-10-31T08:05:47;33.70;;;18.00;;
17145;SDS011;8688;54.444;18.444;2022-10-31T08:08:14;37.40;;;17.05;;
17145;SDS011;8688;54.444;18.444;2022-10-31T08:10:42;36.53;;;17.27;;
17145;SDS011;8688;54.444;18.444;2022-10-31T08:13:10;35.53;;;18.00;;
17145;SDS011;8688;54.444;18.444;2022-10-31T08:15:38;32.20;;;16.70;;
17145;SDS011;8688;54.444;18.444;2022-10-31T08:18:09;33.88;;;16.48;;
17145;SDS011;8688;54.444;18.444;2022-10-31T08:20:40;35.28;;;17.88;;
17145;SDS011;8688;54.444;18.444;2022-10-31T08:23:09;34.58;;;17.40;;
17145;SDS011;8688;54.444;18.444;2022-10-31T08:25:37;35.05;;;18.35;;
17145;SDS011;8688;54.444;18.444;2022-10-31T08:28:05;39.33;;;18.98;;
17145;SDS011;8688;54.444;18.444;2022-10-31T08:30:33;39.35;;;18.55;;
17145;SDS011;8688;54.444;18.444;2022-10-31T08:33:02;36.95;;;17.67;;
17145;SDS011;8688;54.444;18.444;2022-10-31T08:35:31;37.45;;;18.17;;
17145;SDS011;8688;54.444;18.444;2022-10-31T08:38:01;38.90;;;18.38;;
17145;SDS011;8688;54.444;18.444;2022-10-31T08:40:29;37.75;;;18.13;;
17145;SDS011;8688;54.444;18.444;2022-10-31T08:43:01;38.47;;;19.13;;
17145;SDS011;8688;54.444;18.444;2022-10-31T08:45:30;40.28;;;18.20;;
17145;SDS011;8688;54.444;18.444;2022-10-31T08:47:59;35.50;;;18.17;;
17145;SDS011;8688;54.444;18.444;2022-10-31T08:50:28;39.85;;;18.80;;
17145;SDS011;8688;54.444;18.444;2022-10-31T08:53:02;39.08;;;19.38;;
17145;SDS011;8688;54.444;18.444;2022-10-31T08:55:31;41.45;;;19.30;;
17145;SDS011;8688;54.444;18.444;2022-10-31T08:57:59;38.53;;;19.00;;
17145;SDS011;8688;54.444;18.444;2022-10-31T09:00:27;39.55;;;18.70;;
17145;SDS011;8688;54.444;18.444;2022-10-31T09:02:56;39.83;;;19.35;;
17145;SDS011;8688;54.444;18.444;2022-10-31T09:05:24;44.50;;;19.58;;
17145;SDS011;8688;54.444;18.444;2022-10-31T09:07:54;38.85;;;18.23;;
17145;SDS011;8688;54.444;18.444;2022-10-31T09:10:24;41.63;;;19.15;;
17145;SDS011;8688;54.444;18.444;2022-10-31T09:12:55;41.85;;;19.58;;
17145;SDS011;8688;54.444;18.444;2022-10-31T09:15:23;41.65;;;18.35;;
17145;SDS011;8688;54.444;18.444;2022-10-31T09:17:51;46.30;;;20.20;;
17145;SDS011;8688;54.444;18.444;2022-10-31T09:20:18;42.88;;;19.60;;
17145;SDS011;8688;54.444;18.444;2022-10-31T09:22:46;44.30;;;20.45;;
17145;SDS011;8688;54.444;18.444;2022-10-31T09:25:14;47.22;;;20.25;;
17145;SDS011;8688;54.444;18.444;2022-10-31T09:27:43;44.22;;;20.38;;
17145;SDS011;8688;54.444;18.444;2022-10-31T09:30:10;47.00;;;21.48;;
17145;SDS011;8688;54.444;18.444;2022-10-31T09:32:38;46.15;;;20.95;;
17145;SDS011;8688;54.444;18.444;2022-10-31T09:35:06;41.20;;;20.08;;
17145;SDS011;8688;54.444;18.444;2022-10-31T09:37:34;43.95;;;20.58;;
17145;SDS011;8688;54.444;18.444;2022-10-31T09:40:02;41.92;;;20.75;;
17145;SDS011;8688;54.444;18.444;2022-10-31T09:45:24;48.05;;;21.98;;
17145;SDS011;8688;54.444;18.444;2022-10-31T09:48:01;41.25;;;20.65;;
17145;SDS011;8688;54.444;18.444;2022-10-31T09:50:49;43.78;;;21.20;;
17145;SDS011;8688;54.444;18.444;2022-10-31T09:53:23;43.20;;;22.02;;
17145;SDS011;8688;54.444;18.444;2022-10-31T09:55:53;48.50;;;23.55;;
17145;SDS011;8688;54.444;18.444;2022-10-31T09:58:25;44.58;;;23.35;;
17145;SDS011;8688;54.444;18.444;2022-10-31T10:00:56;44.70;;;23.33;;
17145;SDS011;8688;54.444;18.444;2022-10-31T10:03:31;47.72;;;23.65;;
17145;SDS011;8688;54.444;18.444;2022-10-31T10:06:06;43.75;;;23.08;;
17145;SDS011;8688;54.444;18.444;2022-10-31T10:08:39;42.22;;;23.83;;
17145;SDS011;8688;54.444;18.444;2022-10-31T10:11:12;40.22;;;23.33;;
17145;SDS011;8688;54.444;18.444;2022-10-31T10:13:57;42.92;;;22.83;;
17145;SDS011;8688;54.444;18.444;2022-10-31T10:16:51;45.13;;;24.17;;
17145;SDS011;8688;54.444;18.444;2022-10-31T10:19:34;44.17;;;24.38;;
17145;SDS011;8688;54.444;18.444;2022-10-31T10:22:12;48.22;;;23.65;;
17145;SDS011;8688;54.444;18.444;2022-10-31T10:24:58;42.97;;;23.05;;
17145;SDS011;8688;54.444;18.444;2022-10-31T10:27:39;45.22;;;24.10;;
17145;SDS011;8688;54.444;18.444;2022-10-31T10:30:17;48.38;;;24.73;;
17145;SDS011;8688;54.444;18.444;2022-10-31T10:32:46;46.40;;;25.10;;
17145;SDS011;8688;54.444;18.444;2022-10-31T10:35:20;39.67;;;23.42;;
17145;SDS011;8688;54.444;18.444;2022-10-31T10:37:52;47.45;;;24.83;;
17145;SDS011;8688;54.444;18.444;2022-10-31T10:40:23;45.45;;;24.25;;
17145;SDS011;8688;54.444;18.444;2022-10-31T10:42:55;42.78;;;24.23;;
17145;SDS011;8688;54.444;18.444;2022-10-31T10:45:50;43.65;;;24.65;;
17145;SDS011;8688;54.444;18.444;2022-10-31T10:48:47;40.80;;;23.50;;
17145;SDS011;8688;54.444;18.444;2022-10-31T10:51:21;40.85;;;24.35;;
17145;SDS011;8688;54.444;18.444;2022-10-31T10:54:02;43.22;;;24.15;;
17145;SDS011;8688;54.444;18.444;2022-10-31T10:56:44;40.35;;;23.02;;
17145;SDS011;8688;54.444;18.444;2022-10-31T10:59:19;39.97;;;23.55;;
17145;SDS011;8688;54.444;18.444;2022-10-31T11:01:50;40.75;;;23.88;;
17145;SDS011;8688;54.444;18.444;2022-10-31T11:07:08;40.05;;;23.40;;
17145;SDS011;8688;54.444;18.444;2022-10-31T11:09:37;37.63;;;22.95;;
17145;SDS011;8688;54.444;18.444;2022-10-31T11:12:06;40.20;;;22.70;;
17145;SDS011;8688;54.444;18.444;2022-10-31T11:14:36;37.50;;;22.52;;
17145;SDS011;8688;54.444;18.444;2022-10-31T11:17:15;36.50;;;21.90;;
17145;SDS011;8688;54.444;18.444;2022-10-31T11:19:59;36.83;;;22.05;;
17145;SDS011;8688;54.444;18.444;2022-10-31T11:22:28;38.72;;;23.13;;
17145;SDS011;8688;54.444;18.444;2022-10-31T11:24:56;40.22;;;23.73;;
17145;SDS011;8688;54.444;18.444;2022-10-31T11:27:24;38.38;;;22.98;;
17145;SDS011;8688;54.444;18.444;2022-10-31T11:29:52;37.35;;;23.17;;
17145;SDS011;8688;54.444;18.444;2022-10-31T11:32:33;38.75;;;23.05;;
17145;SDS011;8688;54.444;18.444;2022-10-31T11:35:00;40.13;;;23.50;;
17145;SDS011;8688;54.444;18.444;2022-10-31T11:37:35;35.08;;;22.42;;
17145;SDS011;8688;54.444;18.444;2022-10-31T11:40:14;38.28;;;22.38;;
17145;SDS011;8688;54.444;18.444;2022-10-31T11:42:43;40.15;;;23.30;;
17145;SDS011;8688;54.444;18.444;2022-10-31T11:45:14;39.22;;;23.30;;
17145;SDS011;8688;54.444;18.444;2022-10-31T11:47:44;38.67;;;23.60;;
17145;SDS011;8688;54.444;18.444;2022-10-31T11:50:18;42.88;;;24.27;;
17145;SDS011;8688;54.444;18.444;2022-10-31T11:52:47;42.65;;;24.77;;
17145;SDS011;8688;54.444;18.444;2022-10-31T11:55:17;42.20;;;24.48;;
17145;SDS011;8688;54.444;18.444;2022-10-31T11:57:57;39.38;;;23.23;;
17145;SDS011;8688;54.444;18.444;2022-10-31T12:00:26;44.92;;;23.77;;
17145;SDS011;8688;54.444;18.444;2022-10-31T12:03:12;41.55;;;24.05;;
17145;SDS011;8688;54.444;18.444;2022-10-31T12:05:49;37.75;;;23.33;;
17145;SDS011;8688;54.444;18.444;2022-10-31T12:08:22;40.92;;;24.17;;
17145;SDS011;8688;54.444;18.444;2022-10-31T12:10:56;45.47;;;24.17;;
17145;SDS011;8688;54.444;18.444;2022-10-31T12:13:32;38.25;;;22.52;;
17145;SDS011;8688;54.444;18.444;2022-10-31T12:16:06;44.25;;;23.10;;
17145;SDS011;8688;54.444;18.444;2022-10-31T12:18:50;36.40;;;21.40;;
17145;SDS011;8688;54.444;18.444;2022-10-31T12:21:34;35.25;;;20.10;;
17145;SDS011;8688;54.444;18.444;2022-10-31T12:24:20;34.55;;;20.45;;
17145;SDS011;8688;54.444;18.444;2022-10-31T12:27:00;33.83;;;18.92;;
17145;SDS011;8688;54.444;18.444;2022-10-31T12:29:41;29.92;;;18.58;;
17145;SDS011;8688;54.444;18.444;2022-10-31T12:32:20;30.00;;;17.60;;
17145;SDS011;8688;54.444;18.444;2022-10-31T12:35:19;33.65;;;19.08;;
17145;SDS011;8688;54.444;18.444;2022-10-31T12:38:03;35.00;;;18.67;;
17145;SDS011;8688;54.444;18.444;2022-10-31T12:40:52;31.35;;;18.65;;
17145;SDS011;8688;54.444;18.444;2022-10-31T12:43:36;34.00;;;19.60;;
17145;SDS011;8688;54.444;18.444;2022-10-31T12:46:13;32.17;;;19.40;;
17145;SDS011;8688;54.444;18.444;2022-10-31T12:48:56;34.60;;;20.10;;
17145;SDS011;8688;54.444;18.444;2022-10-31T12:51:36;39.17;;;21.95;;
17145;SDS011;8688;54.444;18.444;2022-10-31T12:54:25;35.83;;;21.23;;
17145;SDS011;8688;54.444;18.444;2022-10-31T12:57:09;33.95;;;20.08;;
17145;SDS011;8688;54.444;18.444;2022-10-31T12:59:44;33.60;;;20.20;;
17145;SDS011;8688;54.444;18.444;2022-10-31T13:02:16;33.47;;;19.70;;
17145;SDS011;8688;54.444;18.444;2022-10-31T13:04:50;37.28;;;20.23;;
17145;SDS011;8688;54.444;18.444;2022-10-31T13:07:24;35.13;;;20.77;;
17145;SDS011;8688;54.444;18.444;2022-10-31T13:09:56;35.50;;;20.88;;
17145;SDS011;8688;54.444;18.444;2022-10-31T13:12:29;45.40;;;22.70;;
17145;SDS011;8688;54.444;18.444;2022-10-31T13:14:59;41.45;;;23.40;;
17145;SDS011;8688;54.444;18.444;2022-10-31T13:17:35;40.95;;;24.02;;
17145;SDS011;8688;54.444;18.444;2022-10-31T13:20:14;37.05;;;20.48;;
17145;SDS011;8688;54.444;18.444;2022-10-31T13:22:49;35.60;;;21.20;;
17145;SDS011;8688;54.444;18.444;2022-10-31T13:25:22;33.03;;;20.27;;
17145;SDS011;8688;54.444;18.444;2022-10-31T13:27:53;37.85;;;20.75;;
17145;SDS011;8688;54.444;18.444;2022-10-31T13:30:25;32.85;;;19.33;;
17145;SDS011;8688;54.444;18.444;2022-10-31T13:32:55;31.30;;;19.15;;
17145;SDS011;8688;54.444;18.444;2022-10-31T13:35:29;31.95;;;19.90;;
17145;SDS011;8688;54.444;18.444;2022-10-31T13:38:08;34.42;;;19.15;;
17145;SDS011;8688;54.444;18.444;2022-10-31T13:40:43;32.17;;;18.95;;
17145;SDS011;8688;54.444;18.444;2022-10-31T13:43:18;32.25;;;19.17;;
17145;SDS011;8688;54.444;18.444;2022-10-31T13:45:54;31.65;;;19.25;;
17145;SDS011;8688;54.444;18.444;2022-10-31T13:51:11;32.00;;;19.35;;
17145;SDS011;8688;54.444;18.444;2022-10-31T13:53:41;33.05;;;19.10;;
17145;SDS011;8688;54.444;18.444;2022-10-31T13:56:18;35.85;;;20.63;;
17145;SDS011;8688;54.444;18.444;2022-10-31T13:59:02;35.78;;;20.20;;
17145;SDS011;8688;54.444;18.444;2022-10-31T14:01:45;35.55;;;20.02;;
17145;SDS011;8688;54.444;18.444;2022-10-31T14:04:18;34.75;;;20.50;;
17145;SDS011;8688;54.444;18.444;2022-10-31T14:06:50;33.35;;;20.30;;
17145;SDS011;8688;54.444;18.444;2022-10-31T14:09:27;30.45;;;18.85;;
17145;SDS011;8688;54.444;18.444;2022-10-31T14:11:58;29.95;;;18.83;;
17145;SDS011;8688;54.444;18.444;2022-10-31T14:14:34;35.20;;;19.80;;
17145;SDS011;8688;54.444;18.444;2022-10-31T14:17:14;34.95;;;20.33;;
17145;SDS011;8688;54.444;18.444;2022-10-31T14:19:56;33.30;;;19.63;;
17145;SDS011;8688;54.444;18.444;2022-10-31T14:22:29;29.73;;;17.38;;
17145;SDS011;8688;54.444;18.444;2022-10-31T14:24:58;32.42;;;18.25;;
17145;SDS011;8688;54.444;18.444;2022-10-31T14:27:33;31.52;;;18.73;;
17145;SDS011;8688;54.444;18.444;2022-10-31T14:30:20;35.13;;;19.52;;
17145;SDS011;8688;54.444;18.444;2022-10-31T14:32:50;41.03;;;22.73;;
17145;SDS011;8688;54.444;18.444;2022-10-31T14:35:20;39.33;;;20.92;;
17145;SDS011;8688;54.444;18.444;2022-10-31T14:38:03;31.90;;;19.75;;
17145;SDS011;8688;54.444;18.444;2022-10-31T14:40:46;32.05;;;18.48;;
17145;SDS011;8688;54.444;18.444;2022-10-31T14:43:34;40.38;;;18.52;;
17145;SDS011;8688;54.444;18.444;2022-10-31T14:46:17;33.78;;;19.30;;
17145;SDS011;8688;54.444;18.444;2022-10-31T14:49:09;38.33;;;19.83;;
17145;SDS011;8688;54.444;18.444;2022-10-31T14:51:45;37.42;;;19.20;;
17145;SDS011;8688;54.444;18.444;2022-10-31T14:54:15;36.53;;;19.95;;
17145;SDS011;8688;54.444;18.444;2022-10-31T14:56:49;33.75;;;18.35;;